Chang Sheng — V3PK — position and weather

sailwx.info

Track history (hours):
 
Tides and Currents Weather Stations Pressure Air Temp Water Temp Dewpoint Dewpoint Depression Visibility Wind Speed Wind Dir Waves Ship Positions

Chang Sheng

Last reported at 2014-Dec-21 10:05 UTC. Time now 2014-Dec-22 07:49 UTC.
Position N 34°06' E 130°44'.

Length 86 m; draft 4.9 m.

Type: Cargo ship. MMSI: 312161000.

Date/timePositionNaut miles runAvg speedWind from/ knotsBaromVisibWave heightAir tempDewpointWater temp
2014-Dec-21 10:05N 34°06' E 130°44'6 8.5
2014-Dec-21 09:23N 34°02' E 130°49'205 7.4
2014-Dec-20 05:30N 34°36' E 134°54'6 6.8
2014-Dec-20 04:33N 34°37' E 135°02'5 5.6
2014-Dec-20 03:33N 34°32' E 135°04'8 7.9
2014-Dec-20 02:33N 34°24' E 135°02'8 7.9
2014-Dec-20 01:33N 34°16' E 134°59'10 9.8
2014-Dec-20 00:32N 34°06' E 134°60'  
2014-Dec-11 17:29N 34°59' E 140°07'21 5.1
2014-Dec-11 13:16N 35°11' E 139°46'7 9.8
2014-Dec-11 12:34N 35°18' E 139°44'8 8.4
2014-Dec-11 11:33N 35°26' E 139°46'  
Track history (hours):
 
Tides and Currents Weather Stations Pressure Air Temp Water Temp Dewpoint Dewpoint Depression Visibility Wind Speed Wind Dir Waves Ship Positions

Chang Sheng

Last reported at 2014-Dec-21 10:05 UTC. Time now 2014-Dec-22 07:49 UTC.
Position N 34°06' E 130°44'.

Length 86 m; draft 4.9 m.

Type: Cargo ship. MMSI: 312161000.

Date/timePositionNaut miles runAvg speedWind from/ knotsBaromVisibWave heightAir tempDewpointWater temp
2014-Dec-21 10:05N 34°06' E 130°44'6 8.5
2014-Dec-21 09:23N 34°02' E 130°49'205 7.4
2014-Dec-20 05:30N 34°36' E 134°54'6 6.8
2014-Dec-20 04:33N 34°37' E 135°02'5 5.6
2014-Dec-20 03:33N 34°32' E 135°04'8 7.9
2014-Dec-20 02:33N 34°24' E 135°02'8 7.9
2014-Dec-20 01:33N 34°16' E 134°59'10 9.8
2014-Dec-20 00:32N 34°06' E 134°60'  
2014-Dec-11 17:29N 34°59' E 140°07'21 5.1
2014-Dec-11 13:16N 35°11' E 139°46'7 9.8
2014-Dec-11 12:34N 35°18' E 139°44'8 8.4
2014-Dec-11 11:33N 35°26' E 139°46'  

Dump ship's entire track history